sensor_id;sensor_type;location;lat;lon;timestamp;P1;durP1;ratioP1;P2;durP2;ratioP2
59978;SDS011;45839;44.882;20.650;2022-11-27T00:01:39;48.78;;;33.78;;
59978;SDS011;45839;44.882;20.650;2022-11-27T00:04:06;47.35;;;33.50;;
59978;SDS011;45839;44.882;20.650;2022-11-27T00:06:32;46.95;;;30.58;;
59978;SDS011;45839;44.882;20.650;2022-11-27T00:09:00;47.58;;;31.92;;
59978;SDS011;45839;44.882;20.650;2022-11-27T00:11:27;44.92;;;30.67;;
59978;SDS011;45839;44.882;20.650;2022-11-27T00:13:53;42.97;;;29.73;;
59978;SDS011;45839;44.882;20.650;2022-11-27T00:16:20;45.60;;;30.73;;
59978;SDS011;45839;44.882;20.650;2022-11-27T00:18:47;48.70;;;31.00;;
59978;SDS011;45839;44.882;20.650;2022-11-27T00:21:17;46.28;;;31.60;;
59978;SDS011;45839;44.882;20.650;2022-11-27T00:23:46;47.95;;;31.13;;
59978;SDS011;45839;44.882;20.650;2022-11-27T00:26:12;48.47;;;31.45;;
59978;SDS011;45839;44.882;20.650;2022-11-27T00:28:38;47.22;;;30.13;;
59978;SDS011;45839;44.882;20.650;2022-11-27T00:31:06;46.83;;;30.88;;
59978;SDS011;45839;44.882;20.650;2022-11-27T00:33:32;47.25;;;29.45;;
59978;SDS011;45839;44.882;20.650;2022-11-27T00:36:01;49.45;;;30.75;;
59978;SDS011;45839;44.882;20.650;2022-11-27T00:38:27;48.00;;;31.95;;
59978;SDS011;45839;44.882;20.650;2022-11-27T00:40:57;52.35;;;33.75;;
59978;SDS011;45839;44.882;20.650;2022-11-27T00:43:23;45.47;;;31.77;;
59978;SDS011;45839;44.882;20.650;2022-11-27T00:45:49;50.33;;;30.90;;
59978;SDS011;45839;44.882;20.650;2022-11-27T00:48:15;47.92;;;31.42;;
59978;SDS011;45839;44.882;20.650;2022-11-27T00:50:41;51.38;;;32.38;;
59978;SDS011;45839;44.882;20.650;2022-11-27T00:53:07;46.58;;;30.58;;
59978;SDS011;45839;44.882;20.650;2022-11-27T00:55:33;50.30;;;31.58;;
59978;SDS011;45839;44.882;20.650;2022-11-27T00:57:59;48.35;;;31.48;;
59978;SDS011;45839;44.882;20.650;2022-11-27T01:00:25;52.70;;;32.80;;
59978;SDS011;45839;44.882;20.650;2022-11-27T01:02:51;50.60;;;32.13;;
59978;SDS011;45839;44.882;20.650;2022-11-27T01:05:17;56.22;;;33.00;;
59978;SDS011;45839;44.882;20.650;2022-11-27T01:07:43;52.08;;;31.55;;
59978;SDS011;45839;44.882;20.650;2022-11-27T01:10:09;50.85;;;33.00;;
59978;SDS011;45839;44.882;20.650;2022-11-27T01:12:35;51.72;;;32.30;;
59978;SDS011;45839;44.882;20.650;2022-11-27T01:15:02;51.88;;;31.75;;
59978;SDS011;45839;44.882;20.650;2022-11-27T01:17:28;57.22;;;33.42;;
59978;SDS011;45839;44.882;20.650;2022-11-27T01:19:54;55.28;;;33.92;;
59978;SDS011;45839;44.882;20.650;2022-11-27T01:22:20;52.38;;;30.70;;
59978;SDS011;45839;44.882;20.650;2022-11-27T01:24:46;56.05;;;32.28;;
59978;SDS011;45839;44.882;20.650;2022-11-27T01:27:12;55.10;;;31.88;;
59978;SDS011;45839;44.882;20.650;2022-11-27T01:29:39;55.75;;;33.65;;
59978;SDS011;45839;44.882;20.650;2022-11-27T01:32:05;58.58;;;34.15;;
59978;SDS011;45839;44.882;20.650;2022-11-27T01:34:31;52.88;;;33.05;;
59978;SDS011;45839;44.882;20.650;2022-11-27T01:36:57;53.50;;;31.73;;
59978;SDS011;45839;44.882;20.650;2022-11-27T01:39:23;55.72;;;33.17;;
59978;SDS011;45839;44.882;20.650;2022-11-27T01:41:49;60.10;;;34.17;;
59978;SDS011;45839;44.882;20.650;2022-11-27T01:46:53;58.25;;;34.53;;
59978;SDS011;45839;44.882;20.650;2022-11-27T01:57:24;58.25;;;33.13;;
59978;SDS011;45839;44.882;20.650;2022-11-27T01:59:52;58.05;;;31.77;;
59978;SDS011;45839;44.882;20.650;2022-11-27T02:02:18;52.67;;;30.80;;
59978;SDS011;45839;44.882;20.650;2022-11-27T02:04:44;57.83;;;32.85;;
59978;SDS011;45839;44.882;20.650;2022-11-27T02:07:10;53.28;;;31.98;;
59978;SDS011;45839;44.882;20.650;2022-11-27T02:09:36;54.88;;;32.25;;
59978;SDS011;45839;44.882;20.650;2022-11-27T02:14:36;53.83;;;30.77;;
59978;SDS011;45839;44.882;20.650;2022-11-27T02:17:21;53.47;;;32.17;;
59978;SDS011;45839;44.882;20.650;2022-11-27T02:28:04;65.22;;;35.90;;
59978;SDS011;45839;44.882;20.650;2022-11-27T02:33:03;56.88;;;31.70;;
59978;SDS011;45839;44.882;20.650;2022-11-27T02:35:32;54.30;;;30.98;;
59978;SDS011;45839;44.882;20.650;2022-11-27T02:43:32;62.40;;;34.30;;
59978;SDS011;45839;44.882;20.650;2022-11-27T02:46:00;60.30;;;32.97;;
59978;SDS011;45839;44.882;20.650;2022-11-27T02:48:29;56.70;;;31.70;;
59978;SDS011;45839;44.882;20.650;2022-11-27T02:50:56;53.10;;;30.35;;
59978;SDS011;45839;44.882;20.650;2022-11-27T02:53:23;55.00;;;32.67;;
59978;SDS011;45839;44.882;20.650;2022-11-27T02:55:50;56.33;;;31.92;;
59978;SDS011;45839;44.882;20.650;2022-11-27T02:58:18;54.25;;;31.02;;
59978;SDS011;45839;44.882;20.650;2022-11-27T03:00:44;50.60;;;29.67;;
59978;SDS011;45839;44.882;20.650;2022-11-27T03:03:12;54.92;;;30.45;;
59978;SDS011;45839;44.882;20.650;2022-11-27T03:05:41;51.40;;;29.15;;
59978;SDS011;45839;44.882;20.650;2022-11-27T03:08:09;52.17;;;29.65;;
59978;SDS011;45839;44.882;20.650;2022-11-27T03:13:10;51.90;;;29.88;;
59978;SDS011;45839;44.882;20.650;2022-11-27T03:18:20;51.58;;;29.73;;
59978;SDS011;45839;44.882;20.650;2022-11-27T03:20:47;48.45;;;28.95;;
59978;SDS011;45839;44.882;20.650;2022-11-27T03:23:15;56.22;;;31.30;;
59978;SDS011;45839;44.882;20.650;2022-11-27T03:25:41;52.33;;;29.45;;
59978;SDS011;45839;44.882;20.650;2022-11-27T03:28:07;55.00;;;30.70;;
59978;SDS011;45839;44.882;20.650;2022-11-27T03:30:35;55.53;;;30.55;;
59978;SDS011;45839;44.882;20.650;2022-11-27T03:33:01;53.67;;;31.23;;
59978;SDS011;45839;44.882;20.650;2022-11-27T03:35:27;53.10;;;30.77;;
59978;SDS011;45839;44.882;20.650;2022-11-27T03:37:53;52.58;;;29.13;;
59978;SDS011;45839;44.882;20.650;2022-11-27T03:40:22;52.95;;;30.55;;
59978;SDS011;45839;44.882;20.650;2022-11-27T03:46:07;50.28;;;29.42;;
59978;SDS011;45839;44.882;20.650;2022-11-27T03:56:12;52.95;;;28.77;;
59978;SDS011;45839;44.882;20.650;2022-11-27T04:01:06;55.63;;;29.10;;
59978;SDS011;45839;44.882;20.650;2022-11-27T04:03:33;53.90;;;29.10;;
59978;SDS011;45839;44.882;20.650;2022-11-27T04:06:00;50.97;;;28.50;;
59978;SDS011;45839;44.882;20.650;2022-11-27T04:08:26;49.85;;;28.08;;
59978;SDS011;45839;44.882;20.650;2022-11-27T04:10:52;52.40;;;28.98;;
59978;SDS011;45839;44.882;20.650;2022-11-27T04:13:18;51.20;;;28.83;;
59978;SDS011;45839;44.882;20.650;2022-11-27T04:15:44;48.50;;;28.17;;
59978;SDS011;45839;44.882;20.650;2022-11-27T04:18:11;53.13;;;29.48;;
59978;SDS011;45839;44.882;20.650;2022-11-27T04:20:37;53.47;;;29.73;;
59978;SDS011;45839;44.882;20.650;2022-11-27T04:23:03;51.28;;;27.88;;
59978;SDS011;45839;44.882;20.650;2022-11-27T04:25:29;53.97;;;29.33;;
59978;SDS011;45839;44.882;20.650;2022-11-27T04:27:55;50.22;;;27.48;;
59978;SDS011;45839;44.882;20.650;2022-11-27T04:30:21;48.03;;;28.05;;
59978;SDS011;45839;44.882;20.650;2022-11-27T04:32:47;50.90;;;27.27;;
59978;SDS011;45839;44.882;20.650;2022-11-27T04:35:13;54.20;;;29.17;;
59978;SDS011;45839;44.882;20.650;2022-11-27T04:37:39;53.28;;;29.25;;
59978;SDS011;45839;44.882;20.650;2022-11-27T04:40:06;50.10;;;28.25;;
59978;SDS011;45839;44.882;20.650;2022-11-27T04:42:32;53.17;;;29.52;;
59978;SDS011;45839;44.882;20.650;2022-11-27T04:44:58;53.92;;;30.50;;
59978;SDS011;45839;44.882;20.650;2022-11-27T04:47:25;54.08;;;29.70;;
59978;SDS011;45839;44.882;20.650;2022-11-27T04:49:51;54.95;;;30.20;;
59978;SDS011;45839;44.882;20.650;2022-11-27T04:52:17;47.80;;;28.25;;
59978;SDS011;45839;44.882;20.650;2022-11-27T04:54:43;61.50;;;30.27;;
59978;SDS011;45839;44.882;20.650;2022-11-27T04:57:09;50.67;;;29.48;;
59978;SDS011;45839;44.882;20.650;2022-11-27T04:59:35;52.88;;;28.95;;
59978;SDS011;45839;44.882;20.650;2022-11-27T05:02:02;49.35;;;28.17;;
59978;SDS011;45839;44.882;20.650;2022-11-27T05:04:28;47.13;;;28.40;;
59978;SDS011;45839;44.882;20.650;2022-11-27T05:06:54;44.25;;;27.85;;
59978;SDS011;45839;44.882;20.650;2022-11-27T05:09:20;48.40;;;28.23;;
59978;SDS011;45839;44.882;20.650;2022-11-27T05:11:46;48.03;;;27.08;;
59978;SDS011;45839;44.882;20.650;2022-11-27T05:14:12;51.92;;;29.23;;
59978;SDS011;45839;44.882;20.650;2022-11-27T05:16:47;49.47;;;28.55;;
59978;SDS011;45839;44.882;20.650;2022-11-27T05:19:14;49.63;;;28.48;;
59978;SDS011;45839;44.882;20.650;2022-11-27T05:21:41;44.75;;;28.40;;
59978;SDS011;45839;44.882;20.650;2022-11-27T05:24:07;48.78;;;29.05;;
59978;SDS011;45839;44.882;20.650;2022-11-27T05:26:34;49.10;;;29.65;;
59978;SDS011;45839;44.882;20.650;2022-11-27T05:29:00;48.35;;;28.77;;
59978;SDS011;45839;44.882;20.650;2022-11-27T05:31:26;46.80;;;27.98;;
59978;SDS011;45839;44.882;20.650;2022-11-27T05:33:52;48.42;;;30.35;;
59978;SDS011;45839;44.882;20.650;2022-11-27T05:36:18;53.58;;;32.15;;
59978;SDS011;45839;44.882;20.650;2022-11-27T05:38:44;49.00;;;31.33;;
59978;SDS011;45839;44.882;20.650;2022-11-27T05:41:10;46.85;;;29.08;;
59978;SDS011;45839;44.882;20.650;2022-11-27T05:43:37;45.45;;;28.40;;
59978;SDS011;45839;44.882;20.650;2022-11-27T05:46:06;50.33;;;30.17;;
59978;SDS011;45839;44.882;20.650;2022-11-27T05:48:33;48.28;;;29.08;;
59978;SDS011;45839;44.882;20.650;2022-11-27T05:50:59;53.50;;;30.52;;
59978;SDS011;45839;44.882;20.650;2022-11-27T05:53:25;57.15;;;30.60;;
59978;SDS011;45839;44.882;20.650;2022-11-27T05:55:51;60.22;;;32.33;;
59978;SDS011;45839;44.882;20.650;2022-11-27T05:58:17;53.00;;;30.17;;
59978;SDS011;45839;44.882;20.650;2022-11-27T06:00:43;57.63;;;31.58;;
59978;SDS011;45839;44.882;20.650;2022-11-27T06:03:09;56.25;;;31.20;;
59978;SDS011;45839;44.882;20.650;2022-11-27T06:05:39;56.72;;;31.42;;
59978;SDS011;45839;44.882;20.650;2022-11-27T06:08:05;60.95;;;33.00;;
59978;SDS011;45839;44.882;20.650;2022-11-27T06:10:31;60.38;;;33.30;;
59978;SDS011;45839;44.882;20.650;2022-11-27T06:12:58;51.17;;;30.05;;
59978;SDS011;45839;44.882;20.650;2022-11-27T06:15:24;49.95;;;29.13;;
59978;SDS011;45839;44.882;20.650;2022-11-27T06:17:50;55.95;;;31.23;;
59978;SDS011;45839;44.882;20.650;2022-11-27T06:20:16;55.90;;;30.02;;
59978;SDS011;45839;44.882;20.650;2022-11-27T06:22:44;53.03;;;29.52;;
59978;SDS011;45839;44.882;20.650;2022-11-27T06:25:10;50.85;;;27.90;;
59978;SDS011;45839;44.882;20.650;2022-11-27T06:27:36;50.00;;;28.55;;
59978;SDS011;45839;44.882;20.650;2022-11-27T06:30:03;49.85;;;27.60;;
59978;SDS011;45839;44.882;20.650;2022-11-27T06:32:29;47.53;;;27.58;;
59978;SDS011;45839;44.882;20.650;2022-11-27T06:34:55;51.25;;;26.83;;
59978;SDS011;45839;44.882;20.650;2022-11-27T06:37:21;50.80;;;26.25;;
59978;SDS011;45839;44.882;20.650;2022-11-27T06:39:48;49.88;;;28.17;;
59978;SDS011;45839;44.882;20.650;2022-11-27T06:42:14;46.55;;;26.15;;
59978;SDS011;45839;44.882;20.650;2022-11-27T06:44:40;51.45;;;28.17;;
59978;SDS011;45839;44.882;20.650;2022-11-27T06:47:06;48.40;;;27.45;;
59978;SDS011;45839;44.882;20.650;2022-11-27T06:49:32;48.55;;;27.13;;
59978;SDS011;45839;44.882;20.650;2022-11-27T06:51:58;51.70;;;26.00;;
59978;SDS011;45839;44.882;20.650;2022-11-27T06:54:24;49.20;;;26.45;;
59978;SDS011;45839;44.882;20.650;2022-11-27T06:56:50;45.83;;;24.83;;
59978;SDS011;45839;44.882;20.650;2022-11-27T06:59:17;47.55;;;26.58;;
59978;SDS011;45839;44.882;20.650;2022-11-27T07:01:43;47.92;;;25.95;;
59978;SDS011;45839;44.882;20.650;2022-11-27T07:04:10;49.70;;;27.27;;
59978;SDS011;45839;44.882;20.650;2022-11-27T07:06:37;50.55;;;27.30;;
59978;SDS011;45839;44.882;20.650;2022-11-27T07:09:03;39.35;;;24.58;;
59978;SDS011;45839;44.882;20.650;2022-11-27T07:11:30;50.17;;;26.48;;
59978;SDS011;45839;44.882;20.650;2022-11-27T07:13:57;49.03;;;26.88;;
59978;SDS011;45839;44.882;20.650;2022-11-27T07:16:23;58.58;;;27.85;;
59978;SDS011;45839;44.882;20.650;2022-11-27T07:18:50;51.17;;;27.13;;
59978;SDS011;45839;44.882;20.650;2022-11-27T07:21:17;47.35;;;26.40;;
59978;SDS011;45839;44.882;20.650;2022-11-27T07:23:43;51.22;;;28.58;;
59978;SDS011;45839;44.882;20.650;2022-11-27T07:26:13;57.55;;;27.27;;
59978;SDS011;45839;44.882;20.650;2022-11-27T07:28:40;53.55;;;28.13;;
59978;SDS011;45839;44.882;20.650;2022-11-27T07:31:09;63.03;;;30.42;;
59978;SDS011;45839;44.882;20.650;2022-11-27T07:33:36;54.58;;;28.45;;
59978;SDS011;45839;44.882;20.650;2022-11-27T07:36:03;52.13;;;27.88;;
59978;SDS011;45839;44.882;20.650;2022-11-27T07:38:29;52.63;;;29.25;;
59978;SDS011;45839;44.882;20.650;2022-11-27T07:40:59;57.22;;;29.80;;
59978;SDS011;45839;44.882;20.650;2022-11-27T07:43:25;53.22;;;27.95;;
59978;SDS011;45839;44.882;20.650;2022-11-27T07:45:51;55.65;;;29.77;;
59978;SDS011;45839;44.882;20.650;2022-11-27T07:48:17;65.95;;;29.48;;
59978;SDS011;45839;44.882;20.650;2022-11-27T07:50:44;53.30;;;28.10;;
59978;SDS011;45839;44.882;20.650;2022-11-27T07:53:10;54.83;;;29.05;;
59978;SDS011;45839;44.882;20.650;2022-11-27T07:55:36;50.63;;;27.42;;
59978;SDS011;45839;44.882;20.650;2022-11-27T07:58:03;59.58;;;31.45;;
59978;SDS011;45839;44.882;20.650;2022-11-27T08:00:29;54.00;;;28.65;;
59978;SDS011;45839;44.882;20.650;2022-11-27T08:02:57;65.75;;;32.70;;
59978;SDS011;45839;44.882;20.650;2022-11-27T08:05:23;65.22;;;32.65;;
59978;SDS011;45839;44.882;20.650;2022-11-27T08:07:49;69.55;;;34.40;;
59978;SDS011;45839;44.882;20.650;2022-11-27T08:10:15;76.53;;;32.35;;
59978;SDS011;45839;44.882;20.650;2022-11-27T08:12:41;74.35;;;33.53;;
59978;SDS011;45839;44.882;20.650;2022-11-27T08:15:08;84.55;;;40.45;;
59978;SDS011;45839;44.882;20.650;2022-11-27T08:17:34;73.00;;;36.28;;
59978;SDS011;45839;44.882;20.650;2022-11-27T08:20:00;69.15;;;33.63;;
59978;SDS011;45839;44.882;20.650;2022-11-27T08:22:26;78.03;;;34.80;;
59978;SDS011;45839;44.882;20.650;2022-11-27T08:24:52;86.07;;;36.35;;
59978;SDS011;45839;44.882;20.650;2022-11-27T08:27:19;81.90;;;36.40;;
59978;SDS011;45839;44.882;20.650;2022-11-27T08:29:45;73.68;;;36.85;;
59978;SDS011;45839;44.882;20.650;2022-11-27T08:32:11;82.07;;;36.85;;
59978;SDS011;45839;44.882;20.650;2022-11-27T08:34:37;82.05;;;36.90;;
59978;SDS011;45839;44.882;20.650;2022-11-27T08:37:07;81.20;;;36.17;;
59978;SDS011;45839;44.882;20.650;2022-11-27T08:39:33;74.70;;;36.80;;
59978;SDS011;45839;44.882;20.650;2022-11-27T08:41:59;81.95;;;40.63;;
59978;SDS011;45839;44.882;20.650;2022-11-27T08:44:25;85.95;;;44.17;;
59978;SDS011;45839;44.882;20.650;2022-11-27T08:46:51;89.47;;;45.13;;
59978;SDS011;45839;44.882;20.650;2022-11-27T08:49:17;87.68;;;44.70;;
59978;SDS011;45839;44.882;20.650;2022-11-27T08:51:43;84.30;;;41.58;;
59978;SDS011;45839;44.882;20.650;2022-11-27T08:54:09;79.40;;;38.20;;
59978;SDS011;45839;44.882;20.650;2022-11-27T08:56:35;93.00;;;46.80;;
59978;SDS011;45839;44.882;20.650;2022-11-27T08:59:01;93.18;;;43.13;;
59978;SDS011;45839;44.882;20.650;2022-11-27T09:01:28;81.18;;;39.28;;
59978;SDS011;45839;44.882;20.650;2022-11-27T09:03:54;81.63;;;39.25;;
59978;SDS011;45839;44.882;20.650;2022-11-27T09:06:22;87.05;;;39.55;;
59978;SDS011;45839;44.882;20.650;2022-11-27T09:08:48;80.38;;;39.75;;
59978;SDS011;45839;44.882;20.650;2022-11-27T09:11:15;92.45;;;42.78;;
59978;SDS011;45839;44.882;20.650;2022-11-27T09:13:42;83.25;;;39.30;;
59978;SDS011;45839;44.882;20.650;2022-11-27T09:16:09;92.25;;;44.95;;
59978;SDS011;45839;44.882;20.650;2022-11-27T09:18:36;81.45;;;35.72;;
59978;SDS011;45839;44.882;20.650;2022-11-27T09:21:03;80.25;;;36.63;;
59978;SDS011;45839;44.882;20.650;2022-11-27T09:23:30;86.80;;;39.35;;
59978;SDS011;45839;44.882;20.650;2022-11-27T09:26:00;91.18;;;40.83;;
59978;SDS011;45839;44.882;20.650;2022-11-27T09:28:26;87.95;;;40.95;;
59978;SDS011;45839;44.882;20.650;2022-11-27T09:30:56;79.25;;;38.70;;
59978;SDS011;45839;44.882;20.650;2022-11-27T09:33:23;79.15;;;37.22;;
59978;SDS011;45839;44.882;20.650;2022-11-27T09:35:49;89.43;;;42.38;;
59978;SDS011;45839;44.882;20.650;2022-11-27T09:38:15;116.72;;;59.35;;
59978;SDS011;45839;44.882;20.650;2022-11-27T09:40:48;187.02;;;105.20;;
59978;SDS011;45839;44.882;20.650;2022-11-27T09:43:15;171.40;;;106.32;;
59978;SDS011;45839;44.882;20.650;2022-11-27T09:45:47;177.00;;;113.32;;
59978;SDS011;45839;44.882;20.650;2022-11-27T09:48:18;257.00;;;176.57;;
59978;SDS011;45839;44.882;20.650;2022-11-27T09:50:47;125.57;;;75.05;;
59978;SDS011;45839;44.882;20.650;2022-11-27T09:53:32;86.82;;;44.45;;
59978;SDS011;45839;44.882;20.650;2022-11-27T09:56:00;78.70;;;40.20;;
59978;SDS011;45839;44.882;20.650;2022-11-27T09:58:39;71.45;;;39.75;;
59978;SDS011;45839;44.882;20.650;2022-11-27T10:01:14;66.43;;;33.65;;
59978;SDS011;45839;44.882;20.650;2022-11-27T10:03:41;69.45;;;33.85;;
59978;SDS011;45839;44.882;20.650;2022-11-27T10:27:21;59.30;;;29.08;;
59978;SDS011;45839;44.882;20.650;2022-11-27T10:29:52;56.70;;;29.65;;
59978;SDS011;45839;44.882;20.650;2022-11-27T10:32:20;55.72;;;27.77;;
59978;SDS011;45839;44.882;20.650;2022-11-27T10:34:52;46.13;;;26.33;;
59978;SDS011;45839;44.882;20.650;2022-11-27T10:37:37;50.08;;;27.05;;
59978;SDS011;45839;44.882;20.650;2022-11-27T10:45:24;45.22;;;24.45;;
59978;SDS011;45839;44.882;20.650;2022-11-27T10:47:50;53.67;;;28.52;;
59978;SDS011;45839;44.882;20.650;2022-11-27T10:50:17;51.80;;;28.25;;
59978;SDS011;45839;44.882;20.650;2022-11-27T10:52:53;51.38;;;28.50;;
59978;SDS011;45839;44.882;20.650;2022-11-27T10:55:24;49.42;;;28.38;;
59978;SDS011;45839;44.882;20.650;2022-11-27T10:57:58;64.32;;;34.05;;
59978;SDS011;45839;44.882;20.650;2022-11-27T11:00:27;60.95;;;32.03;;
59978;SDS011;45839;44.882;20.650;2022-11-27T11:03:04;69.60;;;38.50;;
59978;SDS011;45839;44.882;20.650;2022-11-27T11:05:33;58.25;;;31.73;;
59978;SDS011;45839;44.882;20.650;2022-11-27T11:08:03;52.28;;;29.00;;
59978;SDS011;45839;44.882;20.650;2022-11-27T11:13:05;51.35;;;28.08;;
59978;SDS011;45839;44.882;20.650;2022-11-27T11:15:31;55.63;;;28.70;;
59978;SDS011;45839;44.882;20.650;2022-11-27T11:17:57;57.03;;;32.15;;
59978;SDS011;45839;44.882;20.650;2022-11-27T11:20:23;52.85;;;28.60;;
59978;SDS011;45839;44.882;20.650;2022-11-27T11:22:50;47.03;;;27.23;;
59978;SDS011;45839;44.882;20.650;2022-11-27T11:25:17;50.78;;;28.25;;
59978;SDS011;45839;44.882;20.650;2022-11-27T11:27:44;56.65;;;30.63;;
59978;SDS011;45839;44.882;20.650;2022-11-27T11:30:19;50.67;;;28.98;;
59978;SDS011;45839;44.882;20.650;2022-11-27T11:32:45;46.22;;;25.83;;
59978;SDS011;45839;44.882;20.650;2022-11-27T11:35:27;46.97;;;24.52;;
59978;SDS011;45839;44.882;20.650;2022-11-27T11:37:54;43.20;;;25.98;;
59978;SDS011;45839;44.882;20.650;2022-11-27T11:40:22;47.17;;;26.20;;
59978;SDS011;45839;44.882;20.650;2022-11-27T11:42:53;38.47;;;23.30;;
59978;SDS011;45839;44.882;20.650;2022-11-27T11:45:21;40.88;;;23.58;;
59978;SDS011;45839;44.882;20.650;2022-11-27T11:47:48;46.72;;;26.30;;
59978;SDS011;45839;44.882;20.650;2022-11-27T11:50:29;38.38;;;22.88;;
59978;SDS011;45839;44.882;20.650;2022-11-27T11:55:29;37.47;;;22.90;;
59978;SDS011;45839;44.882;20.650;2022-11-27T11:58:05;37.30;;;20.83;;
59978;SDS011;45839;44.882;20.650;2022-11-27T12:00:41;34.30;;;20.15;;
59978;SDS011;45839;44.882;20.650;2022-11-27T12:06:00;36.60;;;20.83;;
59978;SDS011;45839;44.882;20.650;2022-11-27T12:13:35;33.33;;;20.00;;
59978;SDS011;45839;44.882;20.650;2022-11-27T12:16:19;34.50;;;22.92;;
59978;SDS011;45839;44.882;20.650;2022-11-27T12:21:24;30.67;;;19.52;;
59978;SDS011;45839;44.882;20.650;2022-11-27T12:26:38;35.03;;;22.02;;
59978;SDS011;45839;44.882;20.650;2022-11-27T12:29:12;31.33;;;20.60;;
59978;SDS011;45839;44.882;20.650;2022-11-27T12:31:50;30.20;;;20.65;;
59978;SDS011;45839;44.882;20.650;2022-11-27T12:37:05;32.88;;;22.60;;
59978;SDS011;45839;44.882;20.650;2022-11-27T12:47:25;31.95;;;21.98;;
59978;SDS011;45839;44.882;20.650;2022-11-27T12:49:54;31.45;;;19.73;;
59978;SDS011;45839;44.882;20.650;2022-11-27T12:52:30;30.13;;;20.90;;
59978;SDS011;45839;44.882;20.650;2022-11-27T12:57:40;28.20;;;20.92;;
59978;SDS011;45839;44.882;20.650;2022-11-27T13:00:15;29.38;;;20.23;;
59978;SDS011;45839;44.882;20.650;2022-11-27T13:07:45;27.83;;;19.67;;
59978;SDS011;45839;44.882;20.650;2022-11-27T13:13:14;30.10;;;21.75;;
59978;SDS011;45839;44.882;20.650;2022-11-27T13:18:33;26.42;;;19.20;;
59978;SDS011;45839;44.882;20.650;2022-11-27T13:21:00;27.75;;;19.20;;
59978;SDS011;45839;44.882;20.650;2022-11-27T13:23:31;27.60;;;19.42;;
59978;SDS011;45839;44.882;20.650;2022-11-27T13:25:57;27.95;;;18.30;;
59978;SDS011;45839;44.882;20.650;2022-11-27T13:28:28;26.90;;;19.02;;
59978;SDS011;45839;44.882;20.650;2022-11-27T13:30:56;25.10;;;18.05;;
59978;SDS011;45839;44.882;20.650;2022-11-27T13:33:29;24.15;;;17.30;;
59978;SDS011;45839;44.882;20.650;2022-11-27T13:35:58;27.02;;;18.38;;
59978;SDS011;45839;44.882;20.650;2022-11-27T13:38:25;28.95;;;19.85;;
59978;SDS011;45839;44.882;20.650;2022-11-27T13:40:52;27.27;;;17.60;;
59978;SDS011;45839;44.882;20.650;2022-11-27T13:43:26;22.05;;;15.65;;
59978;SDS011;45839;44.882;20.650;2022-11-27T13:46:03;27.48;;;19.48;;
59978;SDS011;45839;44.882;20.650;2022-11-27T13:48:33;25.80;;;18.27;;
59978;SDS011;45839;44.882;20.650;2022-11-27T13:50:59;30.67;;;18.52;;
59978;SDS011;45839;44.882;20.650;2022-11-27T13:53:36;23.35;;;16.55;;
59978;SDS011;45839;44.882;20.650;2022-11-27T13:56:03;24.35;;;17.48;;
59978;SDS011;45839;44.882;20.650;2022-11-27T13:58:30;24.00;;;16.17;;
59978;SDS011;45839;44.882;20.650;2022-11-27T14:00:57;23.20;;;16.13;;
59978;SDS011;45839;44.882;20.650;2022-11-27T14:03:27;23.30;;;16.20;;
59978;SDS011;45839;44.882;20.650;2022-11-27T14:05:53;23.45;;;15.60;;
59978;SDS011;45839;44.882;20.650;2022-11-27T14:08:24;28.08;;;18.80;;
59978;SDS011;45839;44.882;20.650;2022-11-27T14:16:23;25.10;;;17.25;;
59978;SDS011;45839;44.882;20.650;2022-11-27T14:18:50;26.63;;;16.17;;
59978;SDS011;45839;44.882;20.650;2022-11-27T14:21:24;32.42;;;17.13;;
59978;SDS011;45839;44.882;20.650;2022-11-27T14:23:51;27.45;;;18.65;;
59978;SDS011;45839;44.882;20.650;2022-11-27T14:26:19;25.38;;;17.95;;
59978;SDS011;45839;44.882;20.650;2022-11-27T14:28:47;25.80;;;16.55;;
59978;SDS011;45839;44.882;20.650;2022-11-27T14:31:20;26.00;;;17.45;;
59978;SDS011;45839;44.882;20.650;2022-11-27T14:33:47;25.75;;;17.58;;
59978;SDS011;45839;44.882;20.650;2022-11-27T14:36:21;27.48;;;19.77;;
59978;SDS011;45839;44.882;20.650;2022-11-27T14:38:51;25.80;;;17.48;;
59978;SDS011;45839;44.882;20.650;2022-11-27T14:41:18;29.02;;;20.08;;
59978;SDS011;45839;44.882;20.650;2022-11-27T14:43:45;32.65;;;22.90;;
59978;SDS011;45839;44.882;20.650;2022-11-27T14:46:19;25.88;;;18.77;;
59978;SDS011;45839;44.882;20.650;2022-11-27T14:48:50;25.90;;;17.83;;
59978;SDS011;45839;44.882;20.650;2022-11-27T14:51:20;23.38;;;16.63;;
59978;SDS011;45839;44.882;20.650;2022-11-27T14:53:47;23.48;;;16.05;;
59978;SDS011;45839;44.882;20.650;2022-11-27T14:56:14;27.63;;;16.60;;
59978;SDS011;45839;44.882;20.650;2022-11-27T14:58:49;30.48;;;21.95;;
59978;SDS011;45839;44.882;20.650;2022-11-27T15:04:03;28.85;;;21.40;;
59978;SDS011;45839;44.882;20.650;2022-11-27T15:06:38;23.27;;;16.63;;
59978;SDS011;45839;44.882;20.650;2022-11-27T15:09:05;28.33;;;18.95;;
59978;SDS011;45839;44.882;20.650;2022-11-27T15:11:31;22.55;;;16.35;;
59978;SDS011;45839;44.882;20.650;2022-11-27T15:13:58;27.83;;;18.25;;
59978;SDS011;45839;44.882;20.650;2022-11-27T15:16:26;26.63;;;19.00;;
59978;SDS011;45839;44.882;20.650;2022-11-27T15:18:54;26.85;;;18.73;;
59978;SDS011;45839;44.882;20.650;2022-11-27T15:21:22;26.40;;;19.80;;
59978;SDS011;45839;44.882;20.650;2022-11-27T15:23:50;29.33;;;21.08;;
59978;SDS011;45839;44.882;20.650;2022-11-27T15:26:32;30.23;;;21.30;;
59978;SDS011;45839;44.882;20.650;2022-11-27T15:28:59;28.75;;;21.35;;
59978;SDS011;45839;44.882;20.650;2022-11-27T15:31:29;27.98;;;20.05;;
59978;SDS011;45839;44.882;20.650;2022-11-27T15:34:03;27.90;;;19.88;;
59978;SDS011;45839;44.882;20.650;2022-11-27T15:36:37;28.40;;;19.25;;
59978;SDS011;45839;44.882;20.650;2022-11-27T15:39:12;25.73;;;16.90;;
59978;SDS011;45839;44.882;20.650;2022-11-27T15:41:39;24.10;;;16.40;;
59978;SDS011;45839;44.882;20.650;2022-11-27T15:44:14;21.10;;;14.85;;
59978;SDS011;45839;44.882;20.650;2022-11-27T15:46:40;18.90;;;13.65;;
59978;SDS011;45839;44.882;20.650;2022-11-27T15:49:15;21.98;;;14.45;;
59978;SDS011;45839;44.882;20.650;2022-11-27T15:51:41;17.88;;;13.02;;
59978;SDS011;45839;44.882;20.650;2022-11-27T15:54:07;33.13;;;22.33;;
59978;SDS011;45839;44.882;20.650;2022-11-27T15:56:33;22.58;;;15.20;;
59978;SDS011;45839;44.882;20.650;2022-11-27T15:58:59;22.95;;;15.77;;
59978;SDS011;45839;44.882;20.650;2022-11-27T16:01:25;29.17;;;19.10;;
59978;SDS011;45839;44.882;20.650;2022-11-27T16:03:52;27.60;;;19.40;;
59978;SDS011;45839;44.882;20.650;2022-11-27T16:06:18;28.35;;;19.27;;
59978;SDS011;45839;44.882;20.650;2022-11-27T16:08:51;24.05;;;17.17;;
59978;SDS011;45839;44.882;20.650;2022-11-27T16:11:17;23.48;;;16.08;;
59978;SDS011;45839;44.882;20.650;2022-11-27T16:13:43;24.02;;;16.50;;
59978;SDS011;45839;44.882;20.650;2022-11-27T16:16:09;25.10;;;17.73;;
59978;SDS011;45839;44.882;20.650;2022-11-27T16:18:35;26.95;;;18.90;;